Aérodrome :
LOGIN :

S'inscrire | Disclaimer

   EN    FR    IT 

 










Légende :    VFR   VFR Marginal   IFR   IFR Intensif   IFR Très Intensif
Visi : 
Plafond : 
>= 8 km
>= 3000ft
5 à 8 km
1000 à 3000 ft
1500m à 5 km
500 à 1000 ft
800 à 1500m
200 à 500 ft
< 800m
< 200 ft
Symboles :   Orages  Brouillard  Fortes neiges  Fortes précipitations  Vent > 20 kt
SIGMETs :   Divers  Orages  Givrage  Turbulence  Onde Orograph.  Cendres Volcan.







- Altitude de l'aérodrome : 2356 ft


LZTT - Poprad Tatry

DERNIER METAR :
  • 190330Z 02004KT 9999 1200NE PRFG NSC M14/M15 Q1025

METARs EXPIRÉS :
  • 190300Z VRB02KT CAVOK M13/M14 Q1025
  • 190230Z 27003KT 240V320 CAVOK M11/M12 Q1025
  • 190200Z 27006KT CAVOK M11/M13 Q1025
  • 190130Z 27007KT CAVOK M12/M13 Q1025
  • 190100Z 27006KT CAVOK M11/M13 Q1025

TAF TAF LZTT
Valide du 19 à 00h jusqu'au 20 à 00h UTC


182300Z 1900/2000 24004KT CAVOK
BECMG 1910/1912 16006KT 9999 SCT025
Pas de NOTAMs connus pour ce terrain.



MET'MAP, la Météo Aéronautique d'un coup d'oeil ! - Copyright ORBIFLY Décembre 2007 - Disclaimer

ORBIFLY MET'MAP TEAM :

Programmation & Développement : Alexandra Zaïnal
Conception & Développement : Baudouin d'Aumeries
Co-Programmation & Développement : Marc-Olivier Méhu
Soutien technique & logistique : Manuel Goepfert

Contact : metmap@orbifly.com




SOURCES & CREDITS :

   NOAA